createdAt,value
2022-07-31T00:00:16.302Z,91.09
2022-07-31T00:01:18.461Z,91.10
2022-07-31T00:02:21.739Z,90.52
2022-07-31T00:03:23.906Z,90.94
2022-07-31T00:04:28.374Z,90.68
2022-07-31T00:05:31.238Z,90.57
2022-07-31T00:06:34.390Z,90.79
2022-07-31T00:07:36.729Z,90.64
2022-07-31T00:08:39.893Z,90.67
2022-07-31T00:09:49.260Z,90.31
2022-07-31T00:10:58.074Z,90.44
2022-07-31T00:12:00.328Z,90.38
2022-07-31T00:13:03.480Z,90.52
2022-07-31T00:14:05.790Z,90.13
2022-07-31T00:15:12.601Z,90.05
2022-07-31T00:16:14.823Z,90.27
2022-07-31T00:17:20.602Z,90.13
2022-07-31T00:18:22.755Z,89.95
2022-07-31T00:19:25.959Z,89.98
2022-07-31T00:20:28.141Z,89.92
2022-07-31T00:21:31.446Z,90.38
2022-07-31T00:22:33.744Z,90.38
2022-07-31T00:23:36.970Z,90.33
2022-07-31T00:24:39.235Z,90.31
2022-07-31T00:25:42.427Z,90.28
2022-07-31T00:26:44.676Z,90.10
2022-07-31T00:27:47.899Z,90.20
2022-07-31T00:28:50.263Z,90.26
2022-07-31T00:29:53.433Z,90.45
2022-07-31T00:30:57.207Z,90.22
2022-07-31T00:32:00.348Z,90.30
2022-07-31T00:33:02.448Z,90.46
2022-07-31T00:34:05.719Z,90.41
2022-07-31T00:35:08.835Z,90.08
2022-07-31T00:36:12.528Z,90.22
2022-07-31T00:37:14.803Z,90.06
2022-07-31T00:38:27.312Z,89.99
2022-07-31T00:39:31.108Z,89.83
2022-07-31T00:40:34.365Z,89.87
2022-07-31T00:41:39.903Z,89.91
2022-07-31T00:42:43.635Z,89.79
2022-07-31T00:43:45.755Z,89.82
2022-07-31T00:44:49.027Z,89.97
2022-07-31T00:45:58.721Z,90.05
2022-07-31T00:47:04.029Z,90.07
2022-07-31T00:48:06.929Z,90.40
2022-07-31T00:49:10.758Z,90.15
2022-07-31T00:50:13.294Z,90.50
2022-07-31T00:51:18.238Z,90.45
2022-07-31T00:52:20.854Z,90.40
2022-07-31T00:53:23.994Z,90.33
2022-07-31T00:54:26.263Z,90.43
2022-07-31T00:55:29.455Z,90.49
2022-07-31T00:56:31.587Z,90.58
2022-07-31T00:57:34.888Z,90.23
2022-07-31T00:58:37.114Z,90.31
2022-07-31T00:59:40.252Z,90.65
2022-07-31T01:00:43.611Z,90.56
2022-07-31T01:01:45.837Z,90.83
2022-07-31T01:02:50.426Z,90.76
2022-07-31T01:03:53.572Z,90.67
2022-07-31T01:04:56.768Z,90.78
2022-07-31T01:05:59.929Z,90.64
2022-07-31T01:07:02.596Z,90.67
2022-07-31T01:08:06.560Z,90.84
2022-07-31T01:09:08.946Z,90.95
2022-07-31T01:10:15.421Z,90.66
2022-07-31T01:11:22.408Z,90.54
2022-07-31T01:12:30.906Z,90.55
2022-07-31T01:13:39.510Z,90.70
2022-07-31T01:14:47.350Z,90.71
2022-07-31T01:15:50.632Z,90.81
2022-07-31T01:16:57.924Z,90.55
2022-07-31T01:18:01.676Z,90.79
2022-07-31T01:19:13.117Z,90.68
2022-07-31T01:20:16.037Z,90.73
2022-07-31T01:21:24.265Z,90.86
2022-07-31T01:22:42.711Z,90.74
2022-07-31T01:24:31.075Z,90.69
2022-07-31T01:26:03.401Z,90.47
2022-07-31T01:27:27.349Z,90.89
2022-07-31T01:28:52.538Z,90.84
2022-07-31T01:30:00.141Z,90.81
2022-07-31T01:32:38.435Z,90.98
2022-07-31T01:33:47.881Z,91.08
2022-07-31T01:34:55.771Z,91.18
2022-07-31T01:36:03.479Z,91.14
2022-07-31T01:37:13.685Z,91.21
2022-07-31T01:38:22.273Z,91.35
2022-07-31T01:39:27.373Z,91.33
2022-07-31T01:40:43.150Z,91.35
2022-07-31T01:41:47.623Z,91.45
2022-07-31T01:42:55.162Z,91.26
2022-07-31T01:43:59.048Z,91.48
2022-07-31T01:45:05.657Z,91.55
2022-07-31T01:46:12.033Z,91.65
2022-07-31T01:47:18.023Z,91.92
2022-07-31T01:48:20.999Z,91.72
2022-07-31T01:49:24.782Z,91.73
2022-07-31T01:50:43.047Z,92.17
2022-07-31T01:51:49.387Z,92.23
2022-07-31T01:52:53.292Z,92.00
2022-07-31T01:53:57.369Z,92.33
2022-07-31T01:55:00.936Z,92.11
2022-07-31T01:56:05.131Z,92.22
2022-07-31T01:57:13.124Z,92.46
2022-07-31T01:58:21.187Z,92.53
2022-07-31T01:59:25.985Z,92.41
2022-07-31T02:01:08.883Z,92.29
2022-07-31T02:02:15.421Z,92.26
2022-07-31T02:03:43.765Z,92.40
2022-07-31T02:04:47.146Z,92.27
2022-07-31T02:05:52.015Z,92.68
2022-07-31T02:06:57.156Z,92.53
2022-07-31T02:07:59.949Z,92.64
2022-07-31T02:09:04.211Z,92.71
2022-07-31T02:10:10.072Z,92.95
2022-07-31T02:11:14.425Z,92.94
2022-07-31T02:12:18.070Z,92.93
2022-07-31T02:13:38.284Z,92.65
2022-07-31T02:14:43.108Z,92.93
2022-07-31T02:15:47.157Z,93.12
2022-07-31T02:16:55.023Z,92.88
2022-07-31T02:18:12.237Z,92.92
2022-07-31T02:19:57.771Z,93.17
2022-07-31T02:21:02.662Z,93.16
2022-07-31T02:22:06.747Z,92.91
2022-07-31T02:23:09.385Z,93.08
2022-07-31T02:24:12.615Z,93.29
2022-07-31T02:25:14.930Z,93.64
2022-07-31T02:26:18.378Z,93.49
2022-07-31T02:27:58.173Z,93.73
2022-07-31T02:28:45.801Z,93.70
2022-07-31T02:29:48.676Z,93.73
2022-07-31T02:30:53.156Z,93.72
2022-07-31T02:32:09.733Z,93.82
2022-07-31T02:33:15.486Z,93.93
2022-07-31T02:34:20.117Z,94.10
2022-07-31T02:35:32.014Z,93.78
2022-07-31T02:36:35.696Z,93.92
2022-07-31T02:37:40.513Z,93.97
2022-07-31T02:38:43.777Z,94.15
2022-07-31T02:39:47.771Z,93.87
2022-07-31T02:40:51.301Z,94.27
2022-07-31T02:41:57.750Z,94.46
2022-07-31T02:43:00.408Z,94.41
2022-07-31T02:44:04.518Z,94.40
2022-07-31T02:45:09.226Z,94.76
2022-07-31T02:46:13.914Z,94.92
2022-07-31T02:47:17.616Z,95.07
2022-07-31T02:48:21.404Z,95.08
2022-07-31T02:49:25.778Z,95.24
2022-07-31T02:50:29.741Z,95.24
2022-07-31T02:51:38.795Z,95.13
2022-07-31T02:52:45.123Z,95.43
2022-07-31T02:53:48.572Z,95.46
2022-07-31T02:54:52.878Z,95.47
2022-07-31T02:55:57.031Z,95.59
2022-07-31T02:57:01.249Z,95.34
2022-07-31T02:58:03.730Z,95.63
2022-07-31T02:59:07.152Z,95.88
2022-07-31T03:00:27.206Z,95.61
2022-07-31T03:01:35.490Z,95.85
2022-07-31T03:02:39.351Z,95.88
2022-07-31T03:03:43.054Z,95.93
2022-07-31T03:04:46.278Z,95.83
2022-07-31T03:05:49.591Z,96.12
2022-07-31T03:06:51.739Z,96.14
2022-07-31T03:07:54.948Z,95.98
2022-07-31T03:08:58.321Z,96.19
2022-07-31T03:10:00.760Z,96.07
2022-07-31T03:11:19.305Z,96.38
2022-07-31T03:12:22.534Z,96.20
2022-07-31T03:13:28.555Z,96.58
2022-07-31T03:14:33.092Z,96.33
2022-07-31T03:15:39.120Z,96.58
2022-07-31T03:16:43.311Z,96.57
2022-07-31T03:17:49.319Z,96.38
2022-07-31T03:18:58.998Z,96.58
2022-07-31T03:20:01.226Z,96.58
2022-07-31T03:21:05.567Z,96.85
2022-07-31T03:22:13.582Z,96.76
2022-07-31T03:23:20.607Z,96.88
2022-07-31T03:24:28.723Z,97.02
2022-07-31T03:25:34.187Z,96.76
2022-07-31T03:26:37.880Z,97.21
2022-07-31T03:27:40.088Z,97.03
2022-07-31T03:28:43.713Z,97.18
2022-07-31T03:29:46.028Z,97.33
2022-07-31T03:30:55.094Z,97.57
2022-07-31T03:32:02.106Z,97.58
2022-07-31T03:33:06.760Z,97.57
2022-07-31T03:34:13.894Z,97.69
2022-07-31T03:35:16.751Z,97.66
2022-07-31T03:36:19.864Z,97.28
2022-07-31T03:37:23.258Z,97.59
2022-07-31T03:38:39.144Z,97.47
2022-07-31T03:39:46.767Z,97.57
2022-07-31T03:40:49.043Z,97.28
2022-07-31T03:41:53.312Z,97.50
2022-07-31T03:42:56.518Z,97.41
2022-07-31T03:44:00.130Z,97.06
2022-07-31T03:45:03.702Z,97.62
2022-07-31T03:46:07.528Z,97.41
2022-07-31T03:47:09.980Z,97.77
2022-07-31T03:48:15.701Z,97.79
2022-07-31T03:49:18.452Z,97.80
2022-07-31T03:50:22.539Z,97.76
2022-07-31T03:51:24.975Z,97.92
2022-07-31T03:52:28.895Z,98.09
2022-07-31T03:53:31.834Z,97.83
2022-07-31T03:54:35.212Z,97.78
2022-07-31T03:55:50.667Z,98.04
2022-07-31T03:56:55.090Z,98.38
2022-07-31T03:58:00.094Z,98.27
2022-07-31T03:59:03.478Z,98.17
2022-07-31T04:00:16.578Z,98.40
2022-07-31T04:01:21.974Z,98.15
2022-07-31T04:02:26.968Z,98.51
2022-07-31T04:03:39.778Z,98.45
2022-07-31T04:05:09.929Z,98.45
2022-07-31T04:06:14.048Z,98.52
2022-07-31T04:07:17.306Z,98.80
2022-07-31T04:08:20.531Z,98.45
2022-07-31T04:09:22.814Z,98.73
2022-07-31T04:10:26.949Z,98.69
2022-07-31T04:11:30.103Z,98.43
2022-07-31T04:12:33.402Z,98.36
2022-07-31T04:13:37.087Z,98.73
2022-07-31T04:14:40.348Z,98.81
2022-07-31T04:15:42.868Z,98.34
2022-07-31T04:16:46.321Z,98.72
2022-07-31T04:17:50.205Z,98.52
2022-07-31T04:18:59.132Z,98.65
2022-07-31T04:20:02.432Z,98.60
2022-07-31T04:21:08.472Z,98.35
2022-07-31T04:22:11.702Z,98.67
2022-07-31T04:23:14.194Z,98.76
2022-07-31T04:24:55.603Z,98.57
2022-07-31T04:26:25.973Z,98.68
2022-07-31T04:27:45.647Z,98.67
2022-07-31T04:28:51.775Z,98.87
2022-07-31T04:29:53.972Z,98.96
2022-07-31T04:30:57.114Z,99.08
2022-07-31T04:31:59.330Z,99.02
2022-07-31T04:33:09.302Z,98.99
2022-07-31T04:34:13.185Z,98.89
2022-07-31T04:35:16.347Z,98.91
2022-07-31T04:36:30.635Z,99.00
2022-07-31T04:37:35.945Z,98.96
2022-07-31T04:38:38.150Z,99.36
2022-07-31T04:39:41.392Z,99.39
2022-07-31T04:40:43.705Z,99.50
2022-07-31T04:41:47.050Z,99.38
2022-07-31T04:42:50.216Z,99.26
2022-07-31T04:43:52.461Z,99.19
2022-07-31T04:44:55.633Z,99.23
2022-07-31T04:45:58.978Z,98.89
2022-07-31T04:47:01.251Z,98.95
2022-07-31T04:48:07.049Z,98.90
2022-07-31T04:49:11.636Z,98.83
2022-07-31T04:50:16.497Z,98.40
2022-07-31T04:51:30.617Z,98.72
2022-07-31T04:52:35.085Z,98.53
2022-07-31T04:53:43.153Z,98.54
2022-07-31T04:54:46.420Z,98.50
2022-07-31T04:56:04.905Z,98.28
2022-07-31T04:57:08.183Z,98.31
2022-07-31T04:58:10.652Z,98.03
2022-07-31T04:59:15.112Z,97.96
2022-07-31T05:00:20.347Z,97.91
2022-07-31T05:01:23.690Z,97.71
2022-07-31T05:02:26.278Z,97.86
2022-07-31T05:03:29.601Z,97.87
2022-07-31T05:04:31.762Z,97.57
2022-07-31T05:05:36.615Z,97.37
2022-07-31T05:06:41.990Z,97.31
2022-07-31T05:07:45.327Z,97.09
2022-07-31T05:08:51.629Z,96.85
2022-07-31T05:09:54.946Z,96.80
2022-07-31T05:11:15.568Z,96.72
2022-07-31T05:12:19.178Z,96.32
2022-07-31T05:13:22.573Z,96.69
2022-07-31T05:14:27.210Z,96.57
2022-07-31T05:15:29.572Z,96.64
2022-07-31T05:16:33.802Z,96.55
2022-07-31T05:17:36.949Z,96.33
2022-07-31T05:18:58.281Z,96.19
2022-07-31T05:20:19.736Z,96.59
2022-07-31T05:21:54.092Z,96.45
2022-07-31T05:23:16.185Z,96.21
2022-07-31T05:24:54.658Z,96.17
2022-07-31T05:25:57.868Z,96.50
2022-07-31T05:27:01.033Z,96.40
2022-07-31T05:28:03.317Z,96.52
2022-07-31T05:29:12.128Z,96.46
2022-07-31T05:30:14.428Z,96.50
2022-07-31T05:31:18.703Z,96.78
2022-07-31T05:32:21.895Z,97.02
2022-07-31T05:33:24.076Z,96.74
2022-07-31T05:34:27.537Z,96.73
2022-07-31T05:35:32.445Z,96.73
2022-07-31T05:36:35.797Z,96.98
2022-07-31T05:37:39.305Z,96.50
2022-07-31T05:38:45.537Z,96.40
2022-07-31T05:40:17.880Z,96.13
2022-07-31T05:41:53.050Z,95.98
2022-07-31T05:43:11.005Z,95.53
2022-07-31T05:44:28.903Z,95.22
2022-07-31T05:45:31.087Z,94.62
2022-07-31T05:46:34.354Z,94.50
2022-07-31T05:47:39.849Z,94.00
2022-07-31T05:48:44.975Z,93.42
2022-07-31T05:49:47.179Z,92.77
2022-07-31T05:50:51.754Z,92.31
2022-07-31T05:51:54.611Z,91.75
2022-07-31T05:52:59.186Z,91.41
2022-07-31T05:54:31.259Z,90.40
2022-07-31T05:56:12.609Z,89.83
2022-07-31T05:57:33.974Z,89.30
2022-07-31T05:58:38.166Z,88.97
2022-07-31T05:59:40.311Z,88.86
2022-07-31T06:00:44.759Z,88.64
2022-07-31T06:01:46.947Z,88.47
2022-07-31T06:02:50.201Z,88.08
2022-07-31T06:04:16.731Z,88.08
2022-07-31T06:05:21.503Z,87.72
2022-07-31T06:06:24.674Z,87.71
2022-07-31T06:07:26.919Z,87.29
2022-07-31T06:08:31.936Z,87.22
2022-07-31T06:09:35.124Z,87.07
2022-07-31T06:10:37.789Z,86.94
2022-07-31T06:11:41.698Z,86.66
2022-07-31T06:12:43.864Z,86.43
2022-07-31T06:13:47.289Z,86.26
2022-07-31T06:15:02.016Z,86.28
2022-07-31T06:16:14.789Z,85.92
2022-07-31T06:17:17.272Z,85.77
2022-07-31T06:18:20.594Z,84.91
2022-07-31T06:19:24.661Z,84.54
2022-07-31T06:20:29.597Z,84.21
2022-07-31T06:21:32.746Z,83.87
2022-07-31T06:22:34.929Z,83.30
2022-07-31T06:23:39.577Z,82.88
2022-07-31T06:24:53.290Z,82.78
2022-07-31T06:25:57.910Z,82.46
2022-07-31T06:27:01.576Z,82.34
2022-07-31T06:28:10.503Z,81.98
2022-07-31T06:29:13.257Z,81.78
2022-07-31T06:30:16.729Z,81.65
2022-07-31T06:31:20.725Z,81.25
2022-07-31T06:32:23.409Z,80.93
2022-07-31T06:33:37.039Z,80.51
2022-07-31T06:34:40.466Z,79.80
2022-07-31T06:35:43.681Z,79.23
2022-07-31T06:37:06.100Z,78.83
2022-07-31T06:38:09.303Z,78.56
2022-07-31T06:39:54.378Z,78.08
2022-07-31T06:41:35.629Z,77.45
2022-07-31T06:42:58.829Z,76.69
2022-07-31T06:44:23.749Z,76.16
2022-07-31T06:46:05.457Z,76.08
2022-07-31T06:47:26.339Z,76.01
2022-07-31T06:48:52.179Z,75.75
2022-07-31T06:49:57.206Z,75.52
2022-07-31T06:52:28.293Z,75.14
2022-07-31T06:53:30.970Z,74.94
2022-07-31T06:54:35.645Z,74.84
2022-07-31T06:55:38.114Z,74.59
2022-07-31T06:56:47.838Z,74.29
2022-07-31T06:57:51.002Z,74.25
2022-07-31T06:58:53.485Z,74.52
2022-07-31T06:59:56.628Z,74.25
2022-07-31T07:01:00.201Z,74.22
2022-07-31T07:02:02.699Z,73.80
2022-07-31T07:03:07.360Z,73.97
2022-07-31T07:04:09.758Z,73.14
2022-07-31T07:05:13.070Z,72.99
2022-07-31T07:06:15.655Z,72.77
2022-07-31T07:07:19.245Z,72.96
2022-07-31T07:08:25.207Z,72.73
2022-07-31T07:09:27.397Z,72.74
2022-07-31T07:10:31.967Z,73.05
2022-07-31T07:11:34.152Z,73.03
2022-07-31T07:12:37.320Z,72.37
2022-07-31T07:13:45.847Z,72.00
2022-07-31T07:14:51.381Z,72.06
2022-07-31T07:15:54.518Z,71.98
2022-07-31T07:17:03.785Z,72.04
2022-07-31T07:18:08.070Z,72.13
2022-07-31T07:19:31.498Z,72.18
2022-07-31T07:20:34.481Z,72.36
2022-07-31T07:21:37.629Z,72.67
2022-07-31T07:22:39.757Z,72.29
2022-07-31T07:23:43.281Z,72.23
2022-07-31T07:25:01.609Z,72.11
2022-07-31T07:26:05.925Z,72.07
2022-07-31T07:27:09.104Z,71.75
2022-07-31T07:28:15.207Z,71.71
2022-07-31T07:29:34.724Z,71.08
2022-07-31T07:30:37.208Z,70.90
2022-07-31T07:31:41.050Z,70.93
2022-07-31T07:32:43.174Z,71.00
2022-07-31T07:33:47.899Z,70.85
2022-07-31T07:34:59.605Z,70.78
2022-07-31T07:36:29.860Z,70.43
2022-07-31T07:37:39.011Z,70.27
2022-07-31T07:38:41.538Z,70.00
2022-07-31T07:39:45.154Z,69.55
2022-07-31T07:40:47.538Z,69.76
2022-07-31T07:41:53.136Z,69.64
2022-07-31T07:42:59.927Z,69.31
2022-07-31T07:44:07.522Z,68.82
2022-07-31T07:45:10.930Z,68.91
2022-07-31T07:46:14.335Z,68.94
2022-07-31T07:47:21.953Z,68.51
2022-07-31T07:48:24.162Z,68.27
2022-07-31T07:49:47.594Z,68.03
2022-07-31T07:50:58.530Z,67.79
2022-07-31T07:52:06.734Z,67.62
2022-07-31T07:53:14.499Z,67.54
2022-07-31T07:54:44.002Z,67.67
2022-07-31T07:56:05.024Z,67.79
2022-07-31T07:57:28.010Z,67.53
2022-07-31T07:58:49.209Z,67.10
2022-07-31T08:00:20.219Z,66.33
2022-07-31T08:01:35.139Z,65.87
2022-07-31T08:03:46.649Z,65.44
2022-07-31T08:04:16.892Z,65.22
2022-07-31T08:05:19.107Z,64.85
2022-07-31T08:06:23.307Z,64.77
2022-07-31T08:07:41.899Z,64.97
2022-07-31T08:09:05.804Z,65.56
2022-07-31T08:10:26.612Z,65.54
2022-07-31T08:11:36.759Z,65.57
2022-07-31T08:12:54.768Z,65.79
2022-07-31T08:14:20.809Z,65.94
2022-07-31T08:15:51.726Z,65.51
2022-07-31T08:17:12.811Z,65.21
2022-07-31T08:18:17.554Z,65.26
2022-07-31T08:19:21.066Z,65.27
2022-07-31T08:20:23.374Z,65.07
2022-07-31T08:21:28.154Z,65.23
2022-07-31T08:22:31.038Z,65.12
2022-07-31T08:23:34.177Z,65.11
2022-07-31T08:24:38.989Z,64.82
2022-07-31T08:25:41.205Z,65.00
2022-07-31T08:26:58.586Z,64.77
2022-07-31T08:28:04.243Z,64.67
2022-07-31T08:29:08.262Z,64.59
2022-07-31T08:30:12.606Z,64.58
2022-07-31T08:31:15.459Z,64.09
2022-07-31T08:32:32.422Z,63.72
2022-07-31T08:33:42.171Z,63.78
2022-07-31T08:34:44.385Z,63.79
2022-07-31T08:35:50.204Z,63.42
2022-07-31T08:36:53.607Z,63.36
2022-07-31T08:38:03.140Z,62.87
2022-07-31T08:39:17.625Z,62.85
2022-07-31T08:40:43.272Z,62.75
2022-07-31T08:41:49.208Z,62.77
2022-07-31T08:42:52.606Z,62.76
2022-07-31T08:44:01.725Z,62.99
2022-07-31T08:45:08.139Z,63.58
2022-07-31T08:46:15.165Z,63.48
2022-07-31T08:47:21.995Z,63.53
2022-07-31T08:48:29.023Z,63.26
2022-07-31T08:49:37.134Z,63.14
2022-07-31T08:50:41.366Z,62.94
2022-07-31T08:51:54.169Z,62.76
2022-07-31T08:53:23.596Z,63.18
2022-07-31T08:54:35.517Z,63.05
2022-07-31T08:55:56.121Z,62.81
2022-07-31T08:57:00.184Z,62.75
2022-07-31T08:58:03.504Z,62.98
2022-07-31T08:59:10.038Z,62.94
2022-07-31T09:00:19.808Z,63.17
2022-07-31T09:01:22.261Z,63.02
2022-07-31T09:02:28.708Z,62.91
2022-07-31T09:03:58.073Z,62.63
2022-07-31T09:05:02.870Z,62.87
2022-07-31T09:06:06.930Z,62.73
2022-07-31T09:07:16.016Z,62.65
2022-07-31T09:08:23.750Z,62.80
2022-07-31T09:09:45.219Z,62.96
2022-07-31T09:11:03.348Z,62.55
2022-07-31T09:12:13.632Z,62.63
2022-07-31T09:13:40.398Z,63.01
2022-07-31T09:15:07.877Z,62.90
2022-07-31T09:16:12.106Z,63.03
2022-07-31T09:17:15.933Z,63.08
2022-07-31T09:18:24.766Z,62.79
2022-07-31T09:19:53.049Z,63.18
2022-07-31T09:21:03.266Z,62.87
2022-07-31T09:22:10.292Z,63.03
2022-07-31T09:23:14.417Z,62.07
2022-07-31T09:24:28.359Z,62.54
2022-07-31T09:25:31.740Z,62.24
2022-07-31T09:26:34.950Z,62.82
2022-07-31T09:27:38.264Z,62.83
2022-07-31T09:28:43.593Z,62.53
2022-07-31T09:29:49.276Z,62.33
2022-07-31T09:31:33.539Z,61.90
2022-07-31T09:32:54.091Z,61.60
2022-07-31T09:34:28.811Z,61.72
2022-07-31T09:35:54.038Z,61.39
2022-07-31T09:36:56.248Z,61.07
2022-07-31T09:38:36.219Z,60.88
2022-07-31T09:40:14.873Z,60.75
2022-07-31T09:41:57.973Z,60.94
2022-07-31T09:43:25.875Z,60.16
2022-07-31T09:44:39.089Z,59.79
2022-07-31T09:45:48.490Z,59.91
2022-07-31T09:46:52.518Z,59.66
2022-07-31T09:48:06.985Z,58.89
2022-07-31T09:49:09.854Z,58.95
2022-07-31T09:50:15.888Z,58.84
2022-07-31T09:51:18.861Z,59.34
2022-07-31T09:52:23.443Z,59.04
2022-07-31T09:53:27.518Z,58.99
2022-07-31T09:54:44.232Z,58.46
2022-07-31T09:56:07.500Z,57.60
2022-07-31T09:57:14.017Z,57.18
2022-07-31T09:58:21.124Z,56.93
2022-07-31T09:59:24.140Z,56.46
2022-07-31T10:00:28.550Z,56.66
2022-07-31T10:01:33.942Z,55.93
2022-07-31T10:02:40.530Z,55.86
2022-07-31T10:03:42.910Z,55.42
2022-07-31T10:04:47.746Z,54.84
2022-07-31T10:05:51.857Z,54.84
2022-07-31T10:06:57.734Z,55.05
2022-07-31T10:08:01.759Z,54.10
2022-07-31T10:09:33.663Z,54.26
2022-07-31T10:10:44.427Z,54.43
2022-07-31T10:12:16.034Z,53.71
2022-07-31T10:13:22.711Z,53.35
2022-07-31T10:14:28.943Z,53.71
2022-07-31T10:15:34.333Z,53.15
2022-07-31T10:17:00.205Z,53.17
2022-07-31T10:18:35.638Z,53.37
2022-07-31T10:20:10.634Z,53.64
2022-07-31T10:21:44.096Z,53.44
2022-07-31T10:22:58.678Z,53.06
2022-07-31T10:24:11.346Z,53.35
2022-07-31T10:25:21.280Z,52.88
2022-07-31T10:26:39.189Z,52.52
2022-07-31T10:27:48.723Z,52.30
2022-07-31T10:28:52.389Z,52.53
2022-07-31T10:29:56.628Z,52.71
2022-07-31T10:31:01.280Z,52.51
2022-07-31T10:32:06.491Z,52.93
2022-07-31T10:33:40.735Z,52.04
2022-07-31T10:34:56.510Z,51.99
2022-07-31T10:36:30.480Z,51.69
2022-07-31T10:37:59.895Z,51.14
2022-07-31T10:39:29.389Z,51.01
2022-07-31T10:41:03.943Z,50.73
2022-07-31T10:42:13.402Z,50.16
2022-07-31T10:43:21.683Z,50.29
2022-07-31T10:44:48.320Z,49.40
2022-07-31T10:46:02.636Z,49.18
2022-07-31T10:47:20.474Z,48.83
2022-07-31T10:48:54.076Z,47.98
2022-07-31T10:50:31.481Z,48.20
2022-07-31T10:51:57.558Z,47.90
2022-07-31T10:53:20.045Z,47.05
2022-07-31T10:54:45.774Z,46.40
2022-07-31T10:56:11.486Z,46.48
2022-07-31T10:57:56.950Z,46.31
2022-07-31T10:59:33.088Z,46.55
2022-07-31T11:01:06.240Z,46.06
2022-07-31T11:02:30.733Z,46.27
2022-07-31T11:03:55.493Z,46.59
2022-07-31T11:05:24.908Z,47.00
2022-07-31T11:06:59.202Z,46.76
2022-07-31T11:08:25.418Z,47.38
2022-07-31T11:09:50.315Z,45.89
2022-07-31T11:11:32.989Z,46.27
2022-07-31T11:13:01.099Z,46.91
2022-07-31T11:14:33.081Z,47.05
2022-07-31T11:16:05.379Z,47.21
2022-07-31T11:18:21.999Z,47.38
2022-07-31T11:19:15.788Z,47.59
2022-07-31T11:20:20.226Z,47.86
2022-07-31T11:21:39.997Z,47.52
2022-07-31T11:22:52.204Z,47.58
2022-07-31T11:24:03.072Z,47.81
2022-07-31T11:25:09.077Z,47.71
2022-07-31T11:26:13.568Z,47.83
2022-07-31T11:27:15.705Z,48.28
2022-07-31T11:28:23.734Z,47.98
2022-07-31T11:30:00.202Z,47.81
2022-07-31T11:30:53.062Z,47.47
2022-07-31T11:32:03.852Z,47.22
2022-07-31T11:33:08.185Z,45.83
2022-07-31T11:34:13.138Z,45.31
2022-07-31T11:35:29.319Z,44.50
2022-07-31T11:36:33.334Z,45.12
2022-07-31T11:37:46.513Z,44.94
2022-07-31T11:39:01.781Z,44.88
2022-07-31T11:40:13.496Z,45.45
2022-07-31T11:41:22.825Z,46.27
2022-07-31T11:42:33.204Z,46.20
2022-07-31T11:43:47.039Z,46.48
2022-07-31T11:44:53.864Z,46.23
2022-07-31T11:45:58.315Z,46.54
2022-07-31T11:47:03.698Z,46.46
2022-07-31T11:48:35.988Z,45.31
2022-07-31T11:49:48.720Z,45.47
2022-07-31T11:50:52.839Z,45.29
2022-07-31T11:52:00.678Z,45.32
2022-07-31T11:53:07.003Z,45.14
2022-07-31T11:54:12.012Z,44.99
2022-07-31T11:55:17.226Z,44.52
2022-07-31T11:56:21.758Z,44.14
2022-07-31T11:57:52.274Z,44.34
2022-07-31T11:58:56.785Z,44.35
2022-07-31T11:59:59.493Z,44.83
2022-07-31T12:01:06.456Z,45.00
2022-07-31T12:02:10.896Z,45.40
2022-07-31T12:03:16.077Z,46.39
2022-07-31T12:04:22.406Z,46.63
2022-07-31T12:05:37.815Z,46.35
2022-07-31T12:06:44.157Z,46.25
2022-07-31T12:07:48.049Z,46.62
2022-07-31T12:08:52.065Z,46.28
2022-07-31T12:10:00.449Z,46.28
2022-07-31T12:11:11.351Z,45.26
2022-07-31T12:12:19.292Z,45.62
2022-07-31T12:13:26.612Z,45.06
2022-07-31T12:14:30.454Z,45.07
2022-07-31T12:15:36.159Z,45.79
2022-07-31T12:16:42.222Z,45.59
2022-07-31T12:17:44.851Z,46.00
2022-07-31T12:18:50.478Z,45.36
2022-07-31T12:19:58.626Z,45.30
2022-07-31T12:21:03.811Z,45.08
2022-07-31T12:22:14.095Z,45.98
2022-07-31T12:23:40.878Z,45.64
2022-07-31T12:24:40.669Z,45.46
2022-07-31T12:25:45.920Z,46.12
2022-07-31T12:26:52.134Z,45.99
2022-07-31T12:27:55.408Z,45.94
2022-07-31T12:29:01.581Z,44.89
2022-07-31T12:30:13.950Z,44.85
2022-07-31T12:31:17.199Z,44.49
2022-07-31T12:32:26.027Z,44.50
2022-07-31T12:33:29.347Z,44.79
2022-07-31T12:34:38.234Z,44.77
2022-07-31T12:35:55.655Z,45.35
2022-07-31T12:37:04.310Z,45.52
2022-07-31T12:38:36.820Z,45.26
2022-07-31T12:39:53.769Z,45.46
2022-07-31T12:41:07.953Z,46.01
2022-07-31T12:42:21.925Z,47.34
2022-07-31T12:43:34.156Z,47.75
2022-07-31T12:44:36.314Z,47.16
2022-07-31T12:45:40.032Z,46.53
2022-07-31T12:46:42.307Z,45.89
2022-07-31T12:47:45.740Z,45.49
2022-07-31T12:48:55.505Z,45.26
2022-07-31T12:49:59.523Z,45.43
2022-07-31T12:51:01.736Z,45.08
2022-07-31T12:52:05.316Z,44.94
2022-07-31T12:53:07.452Z,45.34
2022-07-31T12:54:11.892Z,45.65
2022-07-31T12:55:17.246Z,46.13
2022-07-31T12:56:23.640Z,46.31
2022-07-31T12:57:26.570Z,46.54
2022-07-31T12:58:30.863Z,46.83
2022-07-31T12:59:33.081Z,47.43
2022-07-31T13:00:39.955Z,47.82
2022-07-31T13:01:43.547Z,47.72
2022-07-31T13:02:46.094Z,47.52
2022-07-31T13:03:51.106Z,47.84
2022-07-31T13:04:53.287Z,47.77
2022-07-31T13:05:57.444Z,47.81
2022-07-31T13:07:00.393Z,48.16
2022-07-31T13:08:03.629Z,47.80
2022-07-31T13:09:07.350Z,47.59
2022-07-31T13:10:20.449Z,47.72
2022-07-31T13:11:30.517Z,47.66
2022-07-31T13:12:51.488Z,47.67
2022-07-31T13:13:56.884Z,48.30
2022-07-31T13:15:01.616Z,48.61
2022-07-31T13:16:03.960Z,48.81
2022-07-31T13:17:07.929Z,48.56
2022-07-31T13:18:11.362Z,48.68
2022-07-31T13:19:13.910Z,48.65
2022-07-31T13:20:17.234Z,48.55
2022-07-31T13:21:19.405Z,48.86
2022-07-31T13:22:22.646Z,48.74
2022-07-31T13:23:24.857Z,48.79
2022-07-31T13:24:28.550Z,49.09
2022-07-31T13:25:30.774Z,49.20
2022-07-31T13:26:35.652Z,49.55
2022-07-31T13:27:39.505Z,49.10
2022-07-31T13:28:46.998Z,49.21
2022-07-31T13:29:50.508Z,49.38
2022-07-31T13:30:55.259Z,49.21
2022-07-31T13:31:57.691Z,49.29
2022-07-31T13:33:01.007Z,49.85
2022-07-31T13:34:03.343Z,49.96
2022-07-31T13:35:26.660Z,49.88
2022-07-31T13:36:35.807Z,49.81
2022-07-31T13:37:42.620Z,49.40
2022-07-31T13:38:44.753Z,49.34
2022-07-31T13:39:47.956Z,49.20
2022-07-31T13:41:08.649Z,49.56
2022-07-31T13:42:12.971Z,49.43
2022-07-31T13:43:17.253Z,49.27
2022-07-31T13:44:20.369Z,49.01
2022-07-31T13:45:22.518Z,49.02
2022-07-31T13:46:26.658Z,49.05
2022-07-31T13:47:50.557Z,49.07
2022-07-31T13:48:53.750Z,48.95
2022-07-31T13:50:03.387Z,48.97
2022-07-31T13:51:06.010Z,49.05
2022-07-31T13:52:09.852Z,49.35
2022-07-31T13:53:12.195Z,49.08
2022-07-31T13:54:16.705Z,49.39
2022-07-31T13:55:18.863Z,49.73
2022-07-31T13:56:42.424Z,49.79
2022-07-31T13:57:46.682Z,49.49
2022-07-31T13:58:48.789Z,50.01
2022-07-31T13:59:51.963Z,50.22
2022-07-31T14:00:54.501Z,50.16
2022-07-31T14:02:03.780Z,49.98
2022-07-31T14:03:07.573Z,50.47
2022-07-31T14:04:14.081Z,50.66
2022-07-31T14:05:26.774Z,50.46
2022-07-31T14:06:29.919Z,50.51
2022-07-31T14:07:45.229Z,49.99
2022-07-31T14:08:50.791Z,50.03
2022-07-31T14:09:55.464Z,51.02
2022-07-31T14:10:57.947Z,50.79
2022-07-31T14:12:03.677Z,50.80
2022-07-31T14:13:09.589Z,50.55
2022-07-31T14:14:11.787Z,50.63
2022-07-31T14:15:16.682Z,50.24
2022-07-31T14:16:18.910Z,50.20
2022-07-31T14:17:22.164Z,50.50
2022-07-31T14:18:24.527Z,50.22
2022-07-31T14:19:27.746Z,50.30
2022-07-31T14:20:32.539Z,50.39
2022-07-31T14:21:36.147Z,50.27
2022-07-31T14:22:38.359Z,50.45
2022-07-31T14:23:41.905Z,50.43
2022-07-31T14:24:51.333Z,50.84
2022-07-31T14:25:54.869Z,51.39
2022-07-31T14:26:58.030Z,51.56
2022-07-31T14:28:00.435Z,51.48
2022-07-31T14:29:07.150Z,51.69
2022-07-31T14:30:10.720Z,51.93
2022-07-31T14:31:15.942Z,52.18
2022-07-31T14:32:19.394Z,52.36
2022-07-31T14:33:22.721Z,52.79
2022-07-31T14:34:35.273Z,53.01
2022-07-31T14:35:38.087Z,52.85
2022-07-31T14:36:41.315Z,53.08
2022-07-31T14:37:43.627Z,52.76
2022-07-31T14:38:46.813Z,52.98
2022-07-31T14:39:48.959Z,52.95
2022-07-31T14:40:52.437Z,53.59
2022-07-31T14:41:54.841Z,53.69
2022-07-31T14:42:58.117Z,54.37
2022-07-31T14:44:00.532Z,54.99
2022-07-31T14:45:06.731Z,54.90
2022-07-31T14:46:09.916Z,55.53
2022-07-31T14:47:17.728Z,56.05
2022-07-31T14:48:23.941Z,56.60
2022-07-31T14:49:26.326Z,57.21